createdAt,value
2022-11-05T00:00:27.136Z,101341.47
2022-11-05T00:01:29.041Z,101341.41
2022-11-05T00:02:30.923Z,101338.78
2022-11-05T00:03:32.954Z,101336.19
2022-11-05T00:04:34.776Z,101341.33
2022-11-05T00:05:36.599Z,101337.82
2022-11-05T00:06:38.527Z,101336.05
2022-11-05T00:07:40.426Z,101332.55
2022-11-05T00:08:42.504Z,101331.59
2022-11-05T00:09:44.326Z,101330.68
2022-11-05T00:10:46.158Z,101337.59
2022-11-05T00:11:47.986Z,101336.69
2022-11-05T00:12:49.856Z,101328.86
2022-11-05T00:13:51.683Z,101334.91
2022-11-05T00:14:53.526Z,101327.08
2022-11-05T00:15:55.354Z,101323.59
2022-11-05T00:16:57.265Z,101332.22
2022-11-05T00:17:59.128Z,101334.81
2022-11-05T00:19:00.951Z,101336.45
2022-11-05T00:20:02.794Z,101336.45
2022-11-05T00:21:04.589Z,101333.81
2022-11-05T00:22:06.417Z,101332.95
2022-11-05T00:23:08.509Z,101331.17
2022-11-05T00:24:10.633Z,101334.63
2022-11-05T00:25:12.453Z,101338.03
2022-11-05T00:26:14.884Z,101344.04
2022-11-05T00:27:16.698Z,101346.63
2022-11-05T00:28:18.578Z,101341.41
2022-11-05T00:29:20.425Z,101343.99
2022-11-05T00:30:22.227Z,101343.95
2022-11-05T00:31:24.061Z,101347.41
2022-11-05T00:32:25.884Z,101342.17
2022-11-05T00:33:27.774Z,101343.08
2022-11-05T00:34:29.601Z,101345.67
2022-11-05T00:35:31.414Z,101343.08
2022-11-05T00:36:33.332Z,101340.48
2022-11-05T00:37:35.166Z,101336.99
2022-11-05T00:38:37.046Z,101339.59
2022-11-05T00:39:38.933Z,101340.44
2022-11-05T00:40:40.849Z,101343.03
2022-11-05T00:41:42.684Z,101343.85
2022-11-05T00:42:44.513Z,101342.98
2022-11-05T00:43:46.383Z,101342.94
2022-11-05T00:44:48.199Z,101342.98
2022-11-05T00:45:50.041Z,101338.63
2022-11-05T00:46:55.886Z,101340.34
2022-11-05T00:47:55.502Z,101336.80
2022-11-05T00:48:57.362Z,101341.21
2022-11-05T00:49:59.192Z,101338.63
2022-11-05T00:51:01.095Z,101336.03
2022-11-05T00:52:02.921Z,101341.21
2022-11-05T00:53:04.743Z,101338.63
2022-11-05T00:54:06.603Z,101337.75
2022-11-05T00:55:08.461Z,101339.48
2022-11-05T00:56:10.989Z,101338.63
2022-11-05T00:57:12.816Z,101336.89
2022-11-05T00:58:14.644Z,101346.44
2022-11-05T00:59:16.519Z,101341.21
2022-11-05T01:00:18.343Z,101341.21
2022-11-05T01:01:21.692Z,101336.08
2022-11-05T01:02:23.673Z,101339.48
2022-11-05T01:03:25.649Z,101344.72
2022-11-05T01:04:27.533Z,101340.39
2022-11-05T01:05:29.347Z,101347.27
2022-11-05T01:06:31.267Z,101352.49
2022-11-05T01:07:33.098Z,101348.21
2022-11-05T01:08:34.950Z,101350.80
2022-11-05T01:09:36.814Z,101349.95
2022-11-05T01:10:38.814Z,101349.95
2022-11-05T01:11:40.652Z,101349.13
2022-11-05T01:12:42.463Z,101341.36
2022-11-05T01:13:44.282Z,101351.72
2022-11-05T01:14:46.151Z,101350.90
2022-11-05T01:15:47.995Z,101354.36
2022-11-05T01:16:49.822Z,101350.00
2022-11-05T01:17:51.639Z,101350.05
2022-11-05T01:18:53.458Z,101349.22
2022-11-05T01:19:55.330Z,101356.22
2022-11-05T01:20:57.285Z,101356.22
2022-11-05T01:21:59.111Z,101350.22
2022-11-05T01:23:00.930Z,101347.62
2022-11-05T01:24:02.763Z,101344.18
2022-11-05T01:25:05.266Z,101354.55
2022-11-05T01:26:08.531Z,101349.36
2022-11-05T01:27:11.326Z,101353.73
2022-11-05T01:28:13.140Z,101351.13
2022-11-05T01:29:15.495Z,101348.50
2022-11-05T01:30:17.685Z,101345.08
2022-11-05T01:31:19.521Z,101354.59
2022-11-05T01:32:21.324Z,101347.67
2022-11-05T01:33:23.145Z,101350.31
2022-11-05T01:34:25.359Z,101350.31
2022-11-05T01:35:27.226Z,101358.04
2022-11-05T01:36:29.421Z,101347.67
2022-11-05T01:37:31.214Z,101353.73
2022-11-05T01:38:33.023Z,101350.27
2022-11-05T01:39:35.194Z,101353.73
2022-11-05T01:40:37.149Z,101351.19
2022-11-05T01:41:39.036Z,101356.36
2022-11-05T01:42:40.866Z,101354.64
2022-11-05T01:43:45.336Z,101352.05
2022-11-05T01:44:47.196Z,101352.95
2022-11-05T01:45:49.051Z,101357.33
2022-11-05T01:46:51.174Z,101350.45
2022-11-05T01:47:53.988Z,101355.64
2022-11-05T01:49:01.750Z,101353.05
2022-11-05T01:49:59.712Z,101361.69
2022-11-05T01:51:04.207Z,101359.09
2022-11-05T01:52:06.052Z,101361.69
2022-11-05T01:53:08.226Z,101358.23
2022-11-05T01:54:10.191Z,101352.14
2022-11-05T01:55:12.010Z,101353.92
2022-11-05T01:56:16.202Z,101353.05
2022-11-05T01:57:18.321Z,101355.64
2022-11-05T01:58:20.121Z,101353.87
2022-11-05T01:59:21.927Z,101349.55
2022-11-05T02:00:23.733Z,101350.45
2022-11-05T02:01:25.695Z,101349.55
2022-11-05T02:02:27.715Z,101347.81
2022-11-05T02:03:29.949Z,101347.81
2022-11-05T02:04:32.091Z,101348.69
2022-11-05T02:05:33.901Z,101346.09
2022-11-05T02:06:35.781Z,101349.55
2022-11-05T02:07:38.647Z,101349.55
2022-11-05T02:08:40.835Z,101352.95
2022-11-05T02:09:43.055Z,101356.36
2022-11-05T02:10:44.859Z,101350.27
2022-11-05T02:11:47.299Z,101364.91
2022-11-05T02:12:49.516Z,101361.41
2022-11-05T02:13:51.331Z,101354.45
2022-11-05T02:14:53.144Z,101363.95
2022-11-05T02:15:56.007Z,101362.23
2022-11-05T02:16:58.254Z,101364.00
2022-11-05T02:18:00.116Z,101363.17
2022-11-05T02:19:02.107Z,101365.77
2022-11-05T02:20:04.035Z,101360.59
2022-11-05T02:21:05.828Z,101359.69
2022-11-05T02:22:08.084Z,101364.00
2022-11-05T02:23:10.361Z,101361.36
2022-11-05T02:24:12.304Z,101360.41
2022-11-05T02:25:14.106Z,101358.72
2022-11-05T02:26:18.182Z,101367.31
2022-11-05T02:27:20.109Z,101367.31
2022-11-05T02:28:22.070Z,101365.59
2022-11-05T02:29:23.909Z,101357.00
2022-11-05T02:30:25.738Z,101363.91
2022-11-05T02:31:27.548Z,101359.54
2022-11-05T02:32:30.779Z,101362.95
2022-11-05T02:33:32.648Z,101361.22
2022-11-05T02:34:34.480Z,101364.67
2022-11-05T02:35:36.297Z,101364.63
2022-11-05T02:36:38.192Z,101372.41
2022-11-05T02:37:40.564Z,101372.41
2022-11-05T02:38:42.386Z,101366.30
2022-11-05T02:39:44.174Z,101375.77
2022-11-05T02:40:46.143Z,101376.67
2022-11-05T02:41:48.046Z,101381.80
2022-11-05T02:42:50.420Z,101380.89
2022-11-05T02:43:52.334Z,101380.89
2022-11-05T02:44:54.556Z,101385.21
2022-11-05T02:45:56.584Z,101382.63
2022-11-05T02:46:58.397Z,101387.80
2022-11-05T02:48:00.780Z,101380.89
2022-11-05T02:49:02.599Z,101385.26
2022-11-05T02:50:04.499Z,101383.48
2022-11-05T02:51:06.327Z,101380.84
2022-11-05T02:52:08.160Z,101384.30
2022-11-05T02:53:10.374Z,101386.83
2022-11-05T02:54:13.380Z,101386.78
2022-11-05T02:56:37.533Z,101380.55
2022-11-05T02:57:39.376Z,101377.81
2022-11-05T02:58:41.263Z,101383.00
2022-11-05T02:59:43.103Z,101382.08
2022-11-05T03:00:45.003Z,101380.30
2022-11-05T03:01:47.027Z,101386.30
2022-11-05T03:02:49.066Z,101380.25
2022-11-05T03:03:51.324Z,101381.92
2022-11-05T03:04:53.157Z,101376.70
2022-11-05T03:05:54.975Z,101379.23
2022-11-05T03:06:56.913Z,101389.55
2022-11-05T03:07:58.722Z,101384.31
2022-11-05T03:09:00.555Z,101386.91
2022-11-05T03:10:02.362Z,101385.95
2022-11-05T03:11:04.177Z,101388.49
2022-11-05T03:12:05.980Z,101391.98
2022-11-05T03:13:07.985Z,101394.47
2022-11-05T03:14:10.311Z,101389.29
2022-11-05T03:15:12.294Z,101395.29
2022-11-05T03:16:14.336Z,101385.75
2022-11-05T03:17:16.164Z,101383.92
2022-11-05T03:18:17.972Z,101390.82
2022-11-05T03:19:19.820Z,101392.55
2022-11-05T03:20:21.636Z,101384.72
2022-11-05T03:21:23.434Z,101389.91
2022-11-05T03:22:25.262Z,101390.72
2022-11-05T03:23:27.062Z,101400.16
2022-11-05T03:24:28.903Z,101394.08
2022-11-05T03:25:30.729Z,101393.16
2022-11-05T03:26:32.852Z,101391.38
2022-11-05T03:27:37.165Z,101395.64
2022-11-05T03:28:39.566Z,101393.86
2022-11-05T03:29:41.799Z,101402.48
2022-11-05T03:30:44.823Z,101404.12
2022-11-05T03:31:47.240Z,101404.06
2022-11-05T03:32:49.651Z,101401.39
2022-11-05T03:33:51.473Z,101404.83
2022-11-05T03:34:53.652Z,101398.70
2022-11-05T03:35:56.026Z,101401.23
2022-11-05T03:36:57.853Z,101405.53
2022-11-05T03:37:59.672Z,101404.63
2022-11-05T03:39:01.483Z,101406.35
2022-11-05T03:40:03.371Z,101408.02
2022-11-05T03:41:05.194Z,101409.70
2022-11-05T03:42:07.006Z,101412.23
2022-11-05T03:43:09.114Z,101407.91
2022-11-05T03:44:11.257Z,101407.86
2022-11-05T03:45:13.121Z,101407.86
2022-11-05T03:46:15.083Z,101412.13
2022-11-05T03:47:16.932Z,101412.08
2022-11-05T03:48:18.765Z,101407.75
2022-11-05T03:49:20.554Z,101414.61
2022-11-05T03:50:22.532Z,101413.73
2022-11-05T03:51:24.362Z,101415.41
2022-11-05T03:52:26.180Z,101417.09
2022-11-05T03:53:27.990Z,101410.17
2022-11-05T03:54:29.814Z,101417.94
2022-11-05T03:55:31.684Z,101415.34
2022-11-05T03:56:33.550Z,101416.98
2022-11-05T03:57:35.379Z,101412.70
2022-11-05T03:58:37.192Z,101411.80
2022-11-05T03:59:39.020Z,101413.58
2022-11-05T04:00:41.001Z,101418.81
2022-11-05T04:01:43.090Z,101421.45
2022-11-05T04:02:45.108Z,101421.45
2022-11-05T04:03:47.085Z,101421.39
2022-11-05T04:04:48.903Z,101420.52
2022-11-05T04:05:50.772Z,101419.56
2022-11-05T04:06:52.601Z,101419.56
2022-11-05T04:07:54.520Z,101420.47
2022-11-05T04:08:56.346Z,101417.88
2022-11-05T04:09:58.169Z,101416.98
2022-11-05T04:11:00.251Z,101417.94
2022-11-05T04:12:02.070Z,101417.88
2022-11-05T04:13:03.899Z,101417.03
2022-11-05T04:14:05.729Z,101417.09
2022-11-05T04:15:07.543Z,101416.22
2022-11-05T04:16:09.971Z,101417.03
2022-11-05T04:17:11.813Z,101420.58
2022-11-05T04:18:13.640Z,101418.86
2022-11-05T04:19:15.467Z,101415.41
2022-11-05T04:20:17.718Z,101418.92
2022-11-05T04:21:19.589Z,101416.37
2022-11-05T04:22:21.422Z,101418.16
2022-11-05T04:23:23.258Z,101422.48
2022-11-05T04:24:25.079Z,101420.80
2022-11-05T04:25:26.903Z,101416.48
2022-11-05T04:26:28.773Z,101422.53
2022-11-05T04:27:30.717Z,101420.00
2022-11-05T04:28:32.497Z,101424.41
2022-11-05T04:29:34.510Z,101424.41
2022-11-05T04:30:36.491Z,101419.30
2022-11-05T04:31:38.485Z,101429.70
2022-11-05T04:32:40.379Z,101423.71
2022-11-05T04:33:42.236Z,101429.00
2022-11-05T04:34:44.017Z,101417.83
2022-11-05T04:35:45.838Z,101423.95
2022-11-05T04:36:47.693Z,101424.88
2022-11-05T04:37:49.529Z,101430.11
2022-11-05T04:38:51.357Z,101429.24
2022-11-05T04:39:53.182Z,101429.30
2022-11-05T04:40:54.993Z,101429.34
2022-11-05T04:41:56.872Z,101428.53
2022-11-05T04:42:58.719Z,101431.17
2022-11-05T04:44:00.527Z,101429.51
2022-11-05T04:45:02.377Z,101437.33
2022-11-05T04:46:04.297Z,101435.66
2022-11-05T04:47:06.164Z,101437.44
2022-11-05T04:48:08.019Z,101432.25
2022-11-05T04:49:09.843Z,101432.25
2022-11-05T04:50:11.763Z,101434.89
2022-11-05T04:51:13.600Z,101439.26
2022-11-05T04:52:15.481Z,101443.63
2022-11-05T04:53:17.286Z,101437.59
2022-11-05T04:54:19.115Z,101439.31
2022-11-05T04:55:20.954Z,101438.49
2022-11-05T04:56:22.787Z,101442.83
2022-11-05T04:57:24.656Z,101435.05
2022-11-05T04:58:26.464Z,101438.49
2022-11-05T04:59:28.289Z,101442.77
2022-11-05T05:00:30.204Z,101444.48
2022-11-05T05:01:32.265Z,101441.90
2022-11-05T05:02:34.355Z,101449.67
2022-11-05T05:03:36.308Z,101447.95
2022-11-05T05:04:38.131Z,101447.08
2022-11-05T05:05:39.963Z,101448.80
2022-11-05T05:06:41.789Z,101443.53
2022-11-05T05:07:43.667Z,101446.97
2022-11-05T05:08:45.479Z,101442.61
2022-11-05T05:09:47.300Z,101456.43
2022-11-05T05:10:49.231Z,101453.84
2022-11-05T05:11:51.061Z,101454.74
2022-11-05T05:12:52.930Z,101455.61
2022-11-05T05:13:54.748Z,101463.38
2022-11-05T05:14:56.568Z,101467.74
2022-11-05T05:15:58.401Z,101467.74
2022-11-05T05:17:00.324Z,101463.38
2022-11-05T05:18:02.180Z,101469.38
2022-11-05T05:19:04.251Z,101464.20
2022-11-05T05:20:06.482Z,101469.38
2022-11-05T05:21:08.314Z,101470.23
2022-11-05T05:22:10.153Z,101472.81
2022-11-05T05:23:12.319Z,101476.22
2022-11-05T05:24:14.253Z,101480.53
2022-11-05T05:25:16.080Z,101475.34
2022-11-05T05:26:18.001Z,101472.55
2022-11-05T05:27:19.820Z,101482.16
2022-11-05T05:28:21.701Z,101487.34
2022-11-05T05:29:23.534Z,101492.57
2022-11-05T05:30:25.392Z,101486.58
2022-11-05T05:31:27.210Z,101483.12
2022-11-05T05:32:29.036Z,101484.86
2022-11-05T05:33:30.913Z,101489.27
2022-11-05T05:34:32.746Z,101490.23
2022-11-05T05:35:34.570Z,101487.70
2022-11-05T05:36:36.498Z,101486.90
2022-11-05T05:37:38.318Z,101493.03
2022-11-05T05:38:40.165Z,101483.66
2022-11-05T05:39:41.986Z,101495.84
2022-11-05T05:40:43.815Z,101491.64
2022-11-05T05:41:45.638Z,101497.74
2022-11-05T05:42:47.460Z,101497.03
2022-11-05T05:43:49.315Z,101496.27
2022-11-05T05:44:51.124Z,101495.50
2022-11-05T05:45:52.934Z,101494.75
2022-11-05T05:46:54.763Z,101500.98
2022-11-05T05:47:56.608Z,101502.78
2022-11-05T05:48:58.444Z,101500.30
2022-11-05T05:50:01.295Z,101501.30
2022-11-05T05:51:04.113Z,101503.17
2022-11-05T05:52:05.947Z,101499.83
2022-11-05T05:53:07.917Z,101499.98
2022-11-05T05:54:09.893Z,101504.45
2022-11-05T05:55:13.768Z,101503.73
2022-11-05T05:56:16.777Z,101503.88
2022-11-05T05:57:18.912Z,101498.84
2022-11-05T05:58:20.716Z,101499.81
2022-11-05T05:59:22.496Z,101502.50
2022-11-05T06:00:24.370Z,101501.78
2022-11-05T06:01:26.184Z,101496.69
2022-11-05T06:02:28.130Z,101507.20
2022-11-05T06:03:30.323Z,101504.70
2022-11-05T06:04:32.185Z,101504.80
2022-11-05T06:05:34.052Z,101498.84
2022-11-05T06:06:36.386Z,101499.76
2022-11-05T06:07:38.487Z,101501.58
2022-11-05T06:08:40.541Z,101510.28
2022-11-05T06:09:42.383Z,101502.49
2022-11-05T06:10:44.359Z,101511.18
2022-11-05T06:11:46.215Z,101512.92
2022-11-05T06:12:48.043Z,101512.09
2022-11-05T06:13:49.851Z,101510.38
2022-11-05T06:14:51.704Z,101506.91
2022-11-05T06:15:53.536Z,101513.87
2022-11-05T06:16:55.438Z,101514.73
2022-11-05T06:17:57.241Z,101519.88
2022-11-05T06:18:59.020Z,101520.75
2022-11-05T06:20:00.757Z,101516.46
2022-11-05T06:21:02.987Z,101512.09
2022-11-05T06:22:04.989Z,101519.05
2022-11-05T06:23:06.818Z,101524.25
2022-11-05T06:24:10.707Z,101519.88
2022-11-05T06:25:12.590Z,101517.28
2022-11-05T06:26:14.506Z,101519.88
2022-11-05T06:27:16.840Z,101523.34
2022-11-05T06:28:18.651Z,101529.44
2022-11-05T06:29:20.461Z,101525.11
2022-11-05T06:30:24.240Z,101522.52
2022-11-05T06:31:26.087Z,101514.78
2022-11-05T06:32:27.865Z,101519.97
2022-11-05T06:33:29.684Z,101520.88
2022-11-05T06:34:31.486Z,101519.97
2022-11-05T06:35:34.171Z,101526.06
2022-11-05T06:36:36.159Z,101526.98
2022-11-05T06:37:38.992Z,101526.98
2022-11-05T06:38:40.808Z,101520.06
2022-11-05T06:39:42.600Z,101525.30
2022-11-05T06:40:44.677Z,101526.20
2022-11-05T06:42:11.861Z,101525.35
2022-11-05T06:42:50.263Z,101530.59
2022-11-05T06:43:52.616Z,101525.45
2022-11-05T06:44:54.976Z,101534.18
2022-11-05T06:45:57.203Z,101526.48
2022-11-05T06:46:59.034Z,101531.72
2022-11-05T06:48:00.843Z,101537.01
2022-11-05T06:49:02.850Z,101542.25
2022-11-05T06:50:04.776Z,101537.10
2022-11-05T06:51:06.619Z,101545.84
2022-11-05T06:52:08.434Z,101540.73
2022-11-05T06:53:10.971Z,101542.52
2022-11-05T06:54:12.973Z,101539.95
2022-11-05T06:55:14.777Z,101540.00
2022-11-05T06:56:16.722Z,101540.05
2022-11-05T06:57:18.505Z,101536.63
2022-11-05T06:58:20.707Z,101543.61
2022-11-05T06:59:23.050Z,101545.37
2022-11-05T07:00:24.987Z,101540.23
2022-11-05T07:01:26.975Z,101535.91
2022-11-05T07:02:28.934Z,101542.09
2022-11-05T07:03:30.778Z,101546.43
2022-11-05T07:04:32.561Z,101544.78
2022-11-05T07:05:34.681Z,101543.05
2022-11-05T07:06:37.191Z,101543.09
2022-11-05T07:07:39.144Z,101536.26
2022-11-05T07:08:40.920Z,101543.23
2022-11-05T07:09:43.097Z,101539.81
2022-11-05T07:10:45.869Z,101550.28
2022-11-05T07:11:47.722Z,101552.06
2022-11-05T07:12:49.786Z,101544.31
2022-11-05T07:13:51.661Z,101546.95
2022-11-05T07:14:54.014Z,101549.59
2022-11-05T07:15:56.166Z,101547.87
2022-11-05T07:16:58.102Z,101545.31
2022-11-05T07:18:00.241Z,101547.12
2022-11-05T07:19:02.046Z,101543.70
2022-11-05T07:20:03.943Z,101550.73
2022-11-05T07:21:05.949Z,101550.73
2022-11-05T07:22:07.690Z,101544.70
2022-11-05T07:23:09.887Z,101547.39
2022-11-05T07:24:11.941Z,101545.66
2022-11-05T07:25:13.753Z,101547.47
2022-11-05T07:26:16.017Z,101544.96
2022-11-05T07:27:18.183Z,101551.93
2022-11-05T07:28:19.995Z,101548.47
2022-11-05T07:29:21.771Z,101546.82
2022-11-05T07:30:23.770Z,101546.91
2022-11-05T07:31:25.579Z,101540.88
2022-11-05T07:32:27.434Z,101543.52
2022-11-05T07:33:33.753Z,101549.63
2022-11-05T07:34:32.801Z,101549.67
2022-11-05T07:35:34.596Z,101550.58
2022-11-05T07:36:36.510Z,101546.33
2022-11-05T07:37:38.588Z,101555.03
2022-11-05T07:38:40.434Z,101555.08
2022-11-05T07:39:43.319Z,101555.98
2022-11-05T07:40:45.678Z,101556.06
2022-11-05T07:41:47.490Z,101549.22
2022-11-05T07:42:49.340Z,101556.23
2022-11-05T07:43:51.665Z,101554.53
2022-11-05T07:44:53.493Z,101554.53
2022-11-05T07:45:55.314Z,101552.84
2022-11-05T07:46:57.421Z,101553.75
2022-11-05T07:47:59.885Z,101556.42
2022-11-05T07:49:02.012Z,101551.23
2022-11-05T07:50:04.287Z,101552.97
2022-11-05T07:51:06.108Z,101549.54
2022-11-05T07:52:08.809Z,101551.31
2022-11-05T07:53:10.966Z,101558.25
2022-11-05T07:54:13.021Z,101558.28
2022-11-05T07:55:15.826Z,101554.86
2022-11-05T07:56:17.636Z,101547.93
2022-11-05T07:57:19.436Z,101551.47
2022-11-05T07:58:21.295Z,101548.05
2022-11-05T07:59:23.175Z,101559.43
2022-11-05T08:00:24.974Z,101548.20
2022-11-05T08:01:27.954Z,101547.41
2022-11-05T08:02:29.963Z,101550.05
2022-11-05T08:03:31.933Z,101546.66
2022-11-05T08:04:33.734Z,101551.03
2022-11-05T08:05:35.576Z,101544.14
2022-11-05T08:06:37.481Z,101547.69
2022-11-05T08:07:39.301Z,101545.13
2022-11-05T08:08:41.189Z,101542.56
2022-11-05T08:09:43.080Z,101543.50
2022-11-05T08:10:45.898Z,101547.84
2022-11-05T08:11:47.731Z,101547.91
2022-11-05T08:12:49.542Z,101548.81
2022-11-05T08:13:52.374Z,101548.05
2022-11-05T08:14:54.209Z,101544.59
2022-11-05T08:15:56.021Z,101549.00
2022-11-05T08:16:57.930Z,101543.00
2022-11-05T08:17:59.766Z,101545.64
2022-11-05T08:19:01.629Z,101548.31
2022-11-05T08:20:03.548Z,101546.58
2022-11-05T08:21:05.376Z,101547.52
2022-11-05T08:22:07.206Z,101545.82
2022-11-05T08:23:09.385Z,101544.12
2022-11-05T08:24:11.494Z,101545.03
2022-11-05T08:25:13.359Z,101552.00
2022-11-05T08:26:15.375Z,101551.20
2022-11-05T08:27:17.188Z,101551.24
2022-11-05T08:28:19.015Z,101554.78
2022-11-05T08:29:20.880Z,101550.52
2022-11-05T08:30:22.686Z,101554.02
2022-11-05T08:31:24.505Z,101550.59
2022-11-05T08:32:26.352Z,101556.70
2022-11-05T08:33:28.171Z,101557.60
2022-11-05T08:34:30.020Z,101553.37
2022-11-05T08:35:31.833Z,101554.27
2022-11-05T08:36:33.753Z,101563.02
2022-11-05T08:37:35.596Z,101566.48
2022-11-05T08:38:37.419Z,101557.88
2022-11-05T08:39:39.286Z,101561.39
2022-11-05T08:40:41.246Z,101557.09
2022-11-05T08:41:43.056Z,101556.25
2022-11-05T08:42:44.868Z,101553.68
2022-11-05T08:43:46.694Z,101559.79
2022-11-05T08:44:48.577Z,101559.82
2022-11-05T08:45:50.415Z,101564.23
2022-11-05T08:46:52.442Z,101559.95
2022-11-05T08:47:54.259Z,101555.62
2022-11-05T08:48:56.067Z,101558.29
2022-11-05T08:49:57.929Z,101561.80
2022-11-05T08:50:59.875Z,101560.96
2022-11-05T08:52:01.690Z,101562.73
2022-11-05T08:53:03.504Z,101560.16
2022-11-05T08:54:05.323Z,101570.64
2022-11-05T08:55:07.188Z,101564.56
2022-11-05T08:56:09.898Z,101560.29
2022-11-05T08:57:11.722Z,101563.77
2022-11-05T08:58:13.538Z,101562.06
2022-11-05T08:59:15.368Z,101563.00
2022-11-05T09:00:17.647Z,101565.63
2022-11-05T09:01:19.631Z,101563.06
2022-11-05T09:02:21.634Z,101569.14
2022-11-05T09:03:23.524Z,101565.70
2022-11-05T09:04:25.339Z,101570.10
2022-11-05T09:05:27.206Z,101567.53
2022-11-05T09:06:29.152Z,101570.17
2022-11-05T09:07:30.983Z,101574.54
2022-11-05T09:08:32.807Z,101565.05
2022-11-05T09:09:34.647Z,101568.56
2022-11-05T09:10:36.604Z,101559.94
2022-11-05T09:12:05.692Z,101566.02
2022-11-05T09:12:42.089Z,101559.97
2022-11-05T09:13:43.919Z,101559.13
2022-11-05T09:14:45.749Z,101556.59
2022-11-05T09:15:47.619Z,101557.48
2022-11-05T09:16:49.530Z,101553.17
2022-11-05T09:17:51.358Z,101556.73
2022-11-05T09:18:53.187Z,101552.36
2022-11-05T09:19:55.011Z,101550.62
2022-11-05T09:20:56.853Z,101551.53
2022-11-05T09:21:58.666Z,101546.34
2022-11-05T09:23:00.480Z,101551.62
2022-11-05T09:24:02.309Z,101552.52
2022-11-05T09:25:04.115Z,101548.27
2022-11-05T09:26:06.072Z,101546.59
2022-11-05T09:27:07.958Z,101550.95
2022-11-05T09:28:12.338Z,101548.41
2022-11-05T09:29:14.636Z,101551.05
2022-11-05T09:30:16.741Z,101547.57
2022-11-05T09:31:18.609Z,101541.52
2022-11-05T09:32:20.439Z,101547.59
2022-11-05T09:33:22.262Z,101539.80
2022-11-05T09:34:24.068Z,101535.52
2022-11-05T09:35:25.892Z,101539.02
2022-11-05T09:36:27.761Z,101542.53
2022-11-05T09:37:29.583Z,101540.84
2022-11-05T09:38:31.416Z,101543.45
2022-11-05T09:39:33.230Z,101544.33
2022-11-05T09:40:37.157Z,101540.88
2022-11-05T09:41:39.017Z,101545.25
2022-11-05T09:42:40.858Z,101543.54
2022-11-05T09:43:42.647Z,101547.02
2022-11-05T09:44:44.368Z,101549.65
2022-11-05T09:45:46.168Z,101551.42
2022-11-05T09:46:48.022Z,101551.39
2022-11-05T09:47:49.827Z,101554.02
2022-11-05T09:48:51.662Z,101547.07
2022-11-05T09:49:53.465Z,101553.19
2022-11-05T09:50:55.267Z,101549.70
2022-11-05T09:51:57.123Z,101554.11
2022-11-05T09:52:58.922Z,101554.11
2022-11-05T09:54:01.673Z,101555.00
2022-11-05T09:55:03.372Z,101554.16
2022-11-05T09:56:05.279Z,101559.37
2022-11-05T09:57:07.131Z,101555.93
2022-11-05T09:58:08.972Z,101556.80
2022-11-05T09:59:10.777Z,101555.06
2022-11-05T10:00:14.024Z,101552.45
2022-11-05T10:01:16.243Z,101556.83
2022-11-05T10:02:18.215Z,101548.13
2022-11-05T10:03:20.086Z,101544.63
2022-11-05T10:04:21.866Z,101548.13
2022-11-05T10:05:23.756Z,101546.39
2022-11-05T10:06:25.655Z,101552.50
2022-11-05T10:07:27.374Z,101556.86
2022-11-05T10:08:29.188Z,101554.27
2022-11-05T10:09:31.357Z,101549.05
2022-11-05T10:10:37.816Z,101551.72
2022-11-05T10:11:37.205Z,101557.83
2022-11-05T10:12:39.061Z,101552.64
2022-11-05T10:13:40.987Z,101556.15
2022-11-05T10:14:42.789Z,101555.27
2022-11-05T10:15:44.602Z,101551.83
2022-11-05T10:16:46.531Z,101544.84
2022-11-05T10:17:48.376Z,101545.73
2022-11-05T10:18:50.191Z,101553.59
2022-11-05T10:19:52.008Z,101547.50
2022-11-05T10:20:53.833Z,101548.40
2022-11-05T10:22:10.958Z,101544.02
2022-11-05T10:22:59.360Z,101540.58
2022-11-05T10:24:01.196Z,101548.42
2022-11-05T10:25:03.007Z,101546.69
2022-11-05T10:26:04.936Z,101541.49
2022-11-05T10:27:07.274Z,101546.73
2022-11-05T10:28:09.120Z,101548.53
2022-11-05T10:29:11.022Z,101548.53
2022-11-05T10:30:13.048Z,101547.69
2022-11-05T10:31:14.883Z,101547.73
2022-11-05T10:32:16.702Z,101543.39
2022-11-05T10:33:18.603Z,101544.28
2022-11-05T10:34:20.430Z,101545.18
2022-11-05T10:35:22.249Z,101539.98
2022-11-05T10:36:24.073Z,101541.72
2022-11-05T10:37:25.890Z,101545.23
2022-11-05T10:38:27.850Z,101543.52
2022-11-05T10:39:29.658Z,101547.89
2022-11-05T10:40:31.462Z,101547.02
2022-11-05T10:41:33.332Z,101542.64
2022-11-05T10:42:35.156Z,101546.97
2022-11-05T10:43:37.365Z,101552.16
2022-11-05T10:44:39.371Z,101544.30
2022-11-05T10:45:41.190Z,101547.84
2022-11-05T10:46:43.110Z,101544.30
2022-11-05T10:47:44.934Z,101546.91
2022-11-05T10:48:46.902Z,101541.70
2022-11-05T10:49:48.717Z,101546.05
2022-11-05T10:50:50.653Z,101550.40
2022-11-05T10:51:52.491Z,101550.38
2022-11-05T10:52:54.312Z,101546.00
2022-11-05T10:54:01.592Z,101543.39
2022-11-05T10:54:59.794Z,101544.25
2022-11-05T10:56:01.618Z,101546.00
2022-11-05T10:57:03.450Z,101547.73
2022-11-05T10:58:05.273Z,101552.95
2022-11-05T10:59:11.990Z,101549.47
2022-11-05T11:00:11.635Z,101551.19
2022-11-05T11:01:13.513Z,101543.34
2022-11-05T11:02:15.451Z,101548.50
2022-11-05T11:03:17.310Z,101551.09
2022-11-05T11:04:19.182Z,101548.42
2022-11-05T11:05:20.993Z,101553.62
2022-11-05T11:06:22.815Z,101542.29
2022-11-05T11:07:24.649Z,101544.90
2022-11-05T11:08:26.478Z,101545.77
2022-11-05T11:09:28.326Z,101543.19
2022-11-05T11:10:30.134Z,101546.66
2022-11-05T11:11:31.964Z,101546.69
2022-11-05T11:12:36.882Z,101549.30
2022-11-05T11:13:37.440Z,101551.03
2022-11-05T11:14:39.300Z,101552.80
2022-11-05T11:15:41.180Z,101547.56
2022-11-05T11:16:43.103Z,101550.20
2022-11-05T11:17:44.929Z,101544.08
2022-11-05T11:18:46.746Z,101548.45
2022-11-05T11:19:48.619Z,101543.23
2022-11-05T11:20:50.519Z,101548.45
2022-11-05T11:21:52.352Z,101551.93
2022-11-05T11:22:54.153Z,101550.22
2022-11-05T11:23:55.966Z,101551.93
2022-11-05T11:24:57.810Z,101550.22
2022-11-05T11:25:59.640Z,101545.84
2022-11-05T11:27:01.466Z,101544.98
2022-11-05T11:28:03.266Z,101542.39
2022-11-05T11:29:05.073Z,101547.59
2022-11-05T11:30:07.948Z,101553.67
2022-11-05T11:31:09.874Z,101557.14
2022-11-05T11:32:11.700Z,101555.41
2022-11-05T11:33:13.871Z,101555.41
2022-11-05T11:34:15.936Z,101557.12
2022-11-05T11:35:17.817Z,101549.30
2022-11-05T11:36:19.911Z,101552.78
2022-11-05T11:37:21.709Z,101550.20
2022-11-05T11:38:23.536Z,101551.03
2022-11-05T11:39:25.361Z,101556.25
2022-11-05T11:40:27.236Z,101551.91
2022-11-05T11:41:29.064Z,101551.03
2022-11-05T11:42:30.873Z,101546.66
2022-11-05T11:43:32.685Z,101550.98
2022-11-05T11:44:34.479Z,101553.54
2022-11-05T11:45:36.333Z,101551.74
2022-11-05T11:46:38.236Z,101557.77
2022-11-05T11:47:40.057Z,101556.04
2022-11-05T11:48:41.879Z,101557.72